sensor_id;sensor_type;location;lat;lon;timestamp;P1;durP1;ratioP1;P2;durP2;ratioP2
49310;SDS011;35177;45.900;5.946;2023-01-23T00:01:02;6.80;;;5.45;;
49310;SDS011;35177;45.900;5.946;2023-01-23T00:03:29;7.95;;;5.70;;
49310;SDS011;35177;45.900;5.946;2023-01-23T00:05:59;7.40;;;5.80;;
49310;SDS011;35177;45.900;5.946;2023-01-23T00:08:25;8.20;;;5.97;;
49310;SDS011;35177;45.900;5.946;2023-01-23T00:10:51;8.05;;;6.22;;
49310;SDS011;35177;45.900;5.946;2023-01-23T00:13:16;7.10;;;5.65;;
49310;SDS011;35177;45.900;5.946;2023-01-23T00:15:42;8.82;;;6.40;;
49310;SDS011;35177;45.900;5.946;2023-01-23T00:18:08;7.82;;;6.20;;
49310;SDS011;35177;45.900;5.946;2023-01-23T00:20:35;8.18;;;6.05;;
49310;SDS011;35177;45.900;5.946;2023-01-23T00:23:02;9.55;;;6.00;;
49310;SDS011;35177;45.900;5.946;2023-01-23T00:25:28;7.95;;;6.28;;
49310;SDS011;35177;45.900;5.946;2023-01-23T00:27:53;7.43;;;5.85;;
49310;SDS011;35177;45.900;5.946;2023-01-23T00:30:19;8.30;;;6.13;;
49310;SDS011;35177;45.900;5.946;2023-01-23T00:32:44;10.30;;;6.45;;
49310;SDS011;35177;45.900;5.946;2023-01-23T00:35:10;7.82;;;6.10;;
49310;SDS011;35177;45.900;5.946;2023-01-23T00:37:35;7.40;;;5.57;;
49310;SDS011;35177;45.900;5.946;2023-01-23T00:40:01;8.05;;;5.80;;
49310;SDS011;35177;45.900;5.946;2023-01-23T00:42:26;8.38;;;5.97;;
49310;SDS011;35177;45.900;5.946;2023-01-23T00:44:52;7.30;;;5.90;;
49310;SDS011;35177;45.900;5.946;2023-01-23T00:47:17;8.65;;;6.25;;
49310;SDS011;35177;45.900;5.946;2023-01-23T00:49:42;7.70;;;5.57;;
49310;SDS011;35177;45.900;5.946;2023-01-23T00:52:08;8.10;;;6.32;;
49310;SDS011;35177;45.900;5.946;2023-01-23T00:54:33;8.35;;;6.03;;
49310;SDS011;35177;45.900;5.946;2023-01-23T00:56:59;8.32;;;6.38;;
49310;SDS011;35177;45.900;5.946;2023-01-23T00:59:24;9.02;;;6.80;;
49310;SDS011;35177;45.900;5.946;2023-01-23T01:01:50;9.25;;;6.28;;
49310;SDS011;35177;45.900;5.946;2023-01-23T01:04:15;8.45;;;6.25;;
49310;SDS011;35177;45.900;5.946;2023-01-23T01:06:41;8.98;;;6.95;;
49310;SDS011;35177;45.900;5.946;2023-01-23T01:09:06;9.30;;;6.88;;
49310;SDS011;35177;45.900;5.946;2023-01-23T01:11:32;9.38;;;7.05;;
49310;SDS011;35177;45.900;5.946;2023-01-23T01:13:57;8.88;;;6.60;;
49310;SDS011;35177;45.900;5.946;2023-01-23T01:16:23;10.65;;;7.53;;
49310;SDS011;35177;45.900;5.946;2023-01-23T01:18:49;10.75;;;7.45;;
49310;SDS011;35177;45.900;5.946;2023-01-23T01:21:15;10.63;;;7.82;;
49310;SDS011;35177;45.900;5.946;2023-01-23T01:23:41;11.40;;;7.95;;
49310;SDS011;35177;45.900;5.946;2023-01-23T01:26:07;13.73;;;8.52;;
49310;SDS011;35177;45.900;5.946;2023-01-23T01:28:34;12.02;;;8.40;;
49310;SDS011;35177;45.900;5.946;2023-01-23T01:31:03;11.80;;;8.30;;
49310;SDS011;35177;45.900;5.946;2023-01-23T01:33:31;11.15;;;7.65;;
49310;SDS011;35177;45.900;5.946;2023-01-23T01:35:58;10.70;;;8.18;;
49310;SDS011;35177;45.900;5.946;2023-01-23T01:38:25;11.80;;;9.10;;
49310;SDS011;35177;45.900;5.946;2023-01-23T01:40:51;11.07;;;8.13;;
49310;SDS011;35177;45.900;5.946;2023-01-23T01:43:20;10.88;;;7.93;;
49310;SDS011;35177;45.900;5.946;2023-01-23T01:51:47;11.75;;;9.13;;
49310;SDS011;35177;45.900;5.946;2023-01-23T01:54:25;12.52;;;8.88;;
49310;SDS011;35177;45.900;5.946;2023-01-23T01:56:56;12.02;;;8.30;;
49310;SDS011;35177;45.900;5.946;2023-01-23T01:59:26;11.70;;;7.93;;
49310;SDS011;35177;45.900;5.946;2023-01-23T02:01:57;11.27;;;8.40;;
49310;SDS011;35177;45.900;5.946;2023-01-23T02:04:29;13.88;;;9.57;;
49310;SDS011;35177;45.900;5.946;2023-01-23T02:07:01;12.18;;;8.98;;
49310;SDS011;35177;45.900;5.946;2023-01-23T02:09:32;12.60;;;8.77;;
49310;SDS011;35177;45.900;5.946;2023-01-23T02:11:58;13.07;;;8.60;;
49310;SDS011;35177;45.900;5.946;2023-01-23T02:14:25;12.68;;;9.07;;
49310;SDS011;35177;45.900;5.946;2023-01-23T02:16:51;14.57;;;9.60;;
49310;SDS011;35177;45.900;5.946;2023-01-23T02:20:04;12.77;;;8.77;;
49310;SDS011;35177;45.900;5.946;2023-01-23T02:22:32;13.35;;;9.45;;
49310;SDS011;35177;45.900;5.946;2023-01-23T02:25:08;13.35;;;9.20;;
49310;SDS011;35177;45.900;5.946;2023-01-23T02:27:51;11.10;;;8.43;;
49310;SDS011;35177;45.900;5.946;2023-01-23T02:30:17;13.82;;;9.98;;
49310;SDS011;35177;45.900;5.946;2023-01-23T02:32:44;12.95;;;9.13;;
49310;SDS011;35177;45.900;5.946;2023-01-23T02:35:12;11.18;;;8.55;;
49310;SDS011;35177;45.900;5.946;2023-01-23T02:37:48;13.95;;;9.27;;
49310;SDS011;35177;45.900;5.946;2023-01-23T02:40:19;15.02;;;10.15;;
49310;SDS011;35177;45.900;5.946;2023-01-23T02:42:53;12.95;;;9.65;;
49310;SDS011;35177;45.900;5.946;2023-01-23T02:45:19;16.30;;;9.68;;
49310;SDS011;35177;45.900;5.946;2023-01-23T02:47:44;12.30;;;8.90;;
49310;SDS011;35177;45.900;5.946;2023-01-23T02:50:10;17.02;;;9.98;;
49310;SDS011;35177;45.900;5.946;2023-01-23T02:52:35;13.18;;;9.65;;
49310;SDS011;35177;45.900;5.946;2023-01-23T02:55:01;12.32;;;9.30;;
49310;SDS011;35177;45.900;5.946;2023-01-23T02:57:26;13.23;;;9.55;;
49310;SDS011;35177;45.900;5.946;2023-01-23T02:59:52;13.40;;;9.18;;
49310;SDS011;35177;45.900;5.946;2023-01-23T03:02:36;14.02;;;9.82;;
49310;SDS011;35177;45.900;5.946;2023-01-23T03:05:02;14.65;;;9.90;;
49310;SDS011;35177;45.900;5.946;2023-01-23T03:07:28;13.18;;;9.63;;
49310;SDS011;35177;45.900;5.946;2023-01-23T03:09:53;12.63;;;9.25;;
49310;SDS011;35177;45.900;5.946;2023-01-23T03:12:18;14.52;;;9.15;;
49310;SDS011;35177;45.900;5.946;2023-01-23T03:14:44;13.57;;;9.88;;
49310;SDS011;35177;45.900;5.946;2023-01-23T03:17:09;12.48;;;9.63;;
49310;SDS011;35177;45.900;5.946;2023-01-23T03:19:35;12.23;;;9.13;;
49310;SDS011;35177;45.900;5.946;2023-01-23T03:22:02;12.93;;;9.48;;
49310;SDS011;35177;45.900;5.946;2023-01-23T03:24:28;15.10;;;10.65;;
49310;SDS011;35177;45.900;5.946;2023-01-23T03:26:53;13.45;;;9.65;;
49310;SDS011;35177;45.900;5.946;2023-01-23T03:29:20;15.35;;;9.57;;
49310;SDS011;35177;45.900;5.946;2023-01-23T03:32:06;11.95;;;9.75;;
49310;SDS011;35177;45.900;5.946;2023-01-23T03:34:33;13.48;;;9.60;;
49310;SDS011;35177;45.900;5.946;2023-01-23T03:36:59;13.52;;;9.75;;
49310;SDS011;35177;45.900;5.946;2023-01-23T03:39:25;15.07;;;10.32;;
49310;SDS011;35177;45.900;5.946;2023-01-23T03:42:09;14.38;;;9.45;;
49310;SDS011;35177;45.900;5.946;2023-01-23T03:44:35;14.25;;;9.32;;
49310;SDS011;35177;45.900;5.946;2023-01-23T03:47:00;13.45;;;10.30;;
49310;SDS011;35177;45.900;5.946;2023-01-23T03:49:26;14.43;;;10.57;;
49310;SDS011;35177;45.900;5.946;2023-01-23T03:51:52;13.35;;;9.52;;
49310;SDS011;35177;45.900;5.946;2023-01-23T03:54:18;15.40;;;9.20;;
49310;SDS011;35177;45.900;5.946;2023-01-23T03:56:43;14.32;;;9.48;;
49310;SDS011;35177;45.900;5.946;2023-01-23T03:59:09;13.35;;;10.00;;
49310;SDS011;35177;45.900;5.946;2023-01-23T04:01:35;12.05;;;8.95;;
49310;SDS011;35177;45.900;5.946;2023-01-23T04:04:01;14.35;;;9.38;;
49310;SDS011;35177;45.900;5.946;2023-01-23T04:06:26;13.48;;;9.43;;
49310;SDS011;35177;45.900;5.946;2023-01-23T04:08:52;13.45;;;10.05;;
49310;SDS011;35177;45.900;5.946;2023-01-23T04:11:19;14.45;;;10.93;;
49310;SDS011;35177;45.900;5.946;2023-01-23T04:13:44;13.25;;;9.30;;
49310;SDS011;35177;45.900;5.946;2023-01-23T04:16:11;13.18;;;10.00;;
49310;SDS011;35177;45.900;5.946;2023-01-23T04:18:36;14.85;;;10.25;;
49310;SDS011;35177;45.900;5.946;2023-01-23T04:21:02;15.23;;;10.23;;
49310;SDS011;35177;45.900;5.946;2023-01-23T04:23:28;13.63;;;9.88;;
49310;SDS011;35177;45.900;5.946;2023-01-23T04:25:53;15.10;;;10.30;;
49310;SDS011;35177;45.900;5.946;2023-01-23T04:28:19;13.10;;;9.80;;
49310;SDS011;35177;45.900;5.946;2023-01-23T04:30:45;13.77;;;9.68;;
49310;SDS011;35177;45.900;5.946;2023-01-23T04:33:11;14.73;;;10.60;;
49310;SDS011;35177;45.900;5.946;2023-01-23T04:35:36;15.65;;;9.82;;
49310;SDS011;35177;45.900;5.946;2023-01-23T04:38:02;13.73;;;9.45;;
49310;SDS011;35177;45.900;5.946;2023-01-23T04:40:28;13.55;;;10.38;;
49310;SDS011;35177;45.900;5.946;2023-01-23T04:42:53;16.17;;;9.98;;
49310;SDS011;35177;45.900;5.946;2023-01-23T04:45:19;17.02;;;9.70;;
49310;SDS011;35177;45.900;5.946;2023-01-23T04:47:45;14.18;;;10.25;;
49310;SDS011;35177;45.900;5.946;2023-01-23T04:50:10;13.13;;;9.13;;
49310;SDS011;35177;45.900;5.946;2023-01-23T04:52:36;15.10;;;10.50;;
49310;SDS011;35177;45.900;5.946;2023-01-23T04:55:01;14.23;;;9.98;;
49310;SDS011;35177;45.900;5.946;2023-01-23T04:57:27;14.43;;;9.85;;
49310;SDS011;35177;45.900;5.946;2023-01-23T04:59:53;14.40;;;9.70;;
49310;SDS011;35177;45.900;5.946;2023-01-23T05:02:18;14.35;;;9.60;;
49310;SDS011;35177;45.900;5.946;2023-01-23T05:04:44;14.73;;;9.63;;
49310;SDS011;35177;45.900;5.946;2023-01-23T05:07:10;13.82;;;9.45;;
49310;SDS011;35177;45.900;5.946;2023-01-23T05:09:37;14.88;;;10.52;;
49310;SDS011;35177;45.900;5.946;2023-01-23T05:12:03;15.48;;;10.05;;
49310;SDS011;35177;45.900;5.946;2023-01-23T05:14:30;12.43;;;9.00;;
49310;SDS011;35177;45.900;5.946;2023-01-23T05:16:55;15.43;;;9.45;;
49310;SDS011;35177;45.900;5.946;2023-01-23T05:19:21;14.43;;;9.80;;
49310;SDS011;35177;45.900;5.946;2023-01-23T05:21:46;14.77;;;10.27;;
49310;SDS011;35177;45.900;5.946;2023-01-23T05:24:12;14.23;;;10.10;;
49310;SDS011;35177;45.900;5.946;2023-01-23T05:26:37;15.43;;;10.40;;
49310;SDS011;35177;45.900;5.946;2023-01-23T05:29:03;15.68;;;10.68;;
49310;SDS011;35177;45.900;5.946;2023-01-23T05:31:28;14.43;;;10.55;;
49310;SDS011;35177;45.900;5.946;2023-01-23T05:33:54;14.30;;;10.70;;
49310;SDS011;35177;45.900;5.946;2023-01-23T05:36:19;14.52;;;9.75;;
49310;SDS011;35177;45.900;5.946;2023-01-23T05:38:45;14.45;;;9.70;;
49310;SDS011;35177;45.900;5.946;2023-01-23T05:41:10;15.00;;;11.02;;
49310;SDS011;35177;45.900;5.946;2023-01-23T05:43:36;13.43;;;10.15;;
49310;SDS011;35177;45.900;5.946;2023-01-23T05:46:01;14.23;;;10.15;;
49310;SDS011;35177;45.900;5.946;2023-01-23T05:48:27;14.32;;;9.30;;
49310;SDS011;35177;45.900;5.946;2023-01-23T05:50:53;14.43;;;10.25;;
49310;SDS011;35177;45.900;5.946;2023-01-23T05:53:18;13.63;;;9.73;;
49310;SDS011;35177;45.900;5.946;2023-01-23T05:55:44;12.52;;;9.45;;
49310;SDS011;35177;45.900;5.946;2023-01-23T05:58:09;12.70;;;9.07;;
49310;SDS011;35177;45.900;5.946;2023-01-23T06:00:35;13.35;;;9.00;;
49310;SDS011;35177;45.900;5.946;2023-01-23T06:03:01;15.05;;;10.40;;
49310;SDS011;35177;45.900;5.946;2023-01-23T06:05:26;14.77;;;10.07;;
49310;SDS011;35177;45.900;5.946;2023-01-23T06:07:52;15.75;;;10.50;;
49310;SDS011;35177;45.900;5.946;2023-01-23T06:10:17;13.10;;;9.05;;
49310;SDS011;35177;45.900;5.946;2023-01-23T06:12:43;13.27;;;9.32;;
49310;SDS011;35177;45.900;5.946;2023-01-23T06:15:09;13.55;;;9.77;;
49310;SDS011;35177;45.900;5.946;2023-01-23T06:17:34;13.02;;;9.57;;
49310;SDS011;35177;45.900;5.946;2023-01-23T06:20:00;12.85;;;9.30;;
49310;SDS011;35177;45.900;5.946;2023-01-23T06:22:26;13.13;;;9.70;;
49310;SDS011;35177;45.900;5.946;2023-01-23T06:24:51;16.40;;;10.25;;
49310;SDS011;35177;45.900;5.946;2023-01-23T06:27:17;12.00;;;8.38;;
49310;SDS011;35177;45.900;5.946;2023-01-23T06:29:42;13.13;;;9.18;;
49310;SDS011;35177;45.900;5.946;2023-01-23T06:32:08;14.40;;;10.35;;
49310;SDS011;35177;45.900;5.946;2023-01-23T06:34:34;13.40;;;9.98;;
49310;SDS011;35177;45.900;5.946;2023-01-23T06:37:00;13.57;;;9.90;;
49310;SDS011;35177;45.900;5.946;2023-01-23T06:39:26;14.15;;;9.15;;
49310;SDS011;35177;45.900;5.946;2023-01-23T06:41:54;12.75;;;9.30;;
49310;SDS011;35177;45.900;5.946;2023-01-23T06:44:20;13.65;;;9.48;;
49310;SDS011;35177;45.900;5.946;2023-01-23T06:46:45;12.18;;;8.70;;
49310;SDS011;35177;45.900;5.946;2023-01-23T06:49:11;13.07;;;9.20;;
49310;SDS011;35177;45.900;5.946;2023-01-23T06:51:36;12.30;;;9.20;;
49310;SDS011;35177;45.900;5.946;2023-01-23T06:54:02;13.30;;;9.23;;
49310;SDS011;35177;45.900;5.946;2023-01-23T06:56:27;13.38;;;9.77;;
49310;SDS011;35177;45.900;5.946;2023-01-23T06:58:53;15.57;;;9.95;;
49310;SDS011;35177;45.900;5.946;2023-01-23T07:01:18;13.20;;;9.13;;
49310;SDS011;35177;45.900;5.946;2023-01-23T07:03:44;14.95;;;9.98;;
49310;SDS011;35177;45.900;5.946;2023-01-23T07:06:12;17.38;;;10.48;;
49310;SDS011;35177;45.900;5.946;2023-01-23T07:08:39;14.82;;;10.27;;
49310;SDS011;35177;45.900;5.946;2023-01-23T07:11:05;17.10;;;9.77;;
49310;SDS011;35177;45.900;5.946;2023-01-23T07:13:32;13.90;;;9.93;;
49310;SDS011;35177;45.900;5.946;2023-01-23T07:15:58;16.23;;;11.15;;
49310;SDS011;35177;45.900;5.946;2023-01-23T07:18:25;15.30;;;10.90;;
49310;SDS011;35177;45.900;5.946;2023-01-23T07:20:54;14.85;;;9.88;;
49310;SDS011;35177;45.900;5.946;2023-01-23T07:23:21;17.77;;;10.70;;
49310;SDS011;35177;45.900;5.946;2023-01-23T07:25:49;18.52;;;10.30;;
49310;SDS011;35177;45.900;5.946;2023-01-23T07:28:15;18.73;;;11.27;;
49310;SDS011;35177;45.900;5.946;2023-01-23T07:30:41;17.70;;;10.50;;
49310;SDS011;35177;45.900;5.946;2023-01-23T07:33:14;15.38;;;10.80;;
49310;SDS011;35177;45.900;5.946;2023-01-23T07:35:42;13.75;;;9.52;;
49310;SDS011;35177;45.900;5.946;2023-01-23T07:38:08;14.32;;;10.30;;
49310;SDS011;35177;45.900;5.946;2023-01-23T07:40:35;16.77;;;10.02;;
49310;SDS011;35177;45.900;5.946;2023-01-23T07:43:03;15.90;;;10.63;;
49310;SDS011;35177;45.900;5.946;2023-01-23T07:45:29;16.20;;;10.75;;
49310;SDS011;35177;45.900;5.946;2023-01-23T07:47:56;17.55;;;10.35;;
49310;SDS011;35177;45.900;5.946;2023-01-23T07:50:22;12.75;;;9.15;;
49310;SDS011;35177;45.900;5.946;2023-01-23T07:52:49;14.98;;;9.80;;
49310;SDS011;35177;45.900;5.946;2023-01-23T07:55:16;13.52;;;9.93;;
49310;SDS011;35177;45.900;5.946;2023-01-23T07:57:42;15.15;;;9.35;;
49310;SDS011;35177;45.900;5.946;2023-01-23T08:00:10;14.38;;;10.25;;
49310;SDS011;35177;45.900;5.946;2023-01-23T08:02:36;18.20;;;10.13;;
49310;SDS011;35177;45.900;5.946;2023-01-23T08:05:02;13.40;;;9.50;;
49310;SDS011;35177;45.900;5.946;2023-01-23T08:07:29;14.48;;;9.38;;
49310;SDS011;35177;45.900;5.946;2023-01-23T08:09:55;15.10;;;10.05;;
49310;SDS011;35177;45.900;5.946;2023-01-23T08:12:20;13.73;;;9.68;;
49310;SDS011;35177;45.900;5.946;2023-01-23T08:14:46;16.50;;;10.55;;
49310;SDS011;35177;45.900;5.946;2023-01-23T08:17:12;15.57;;;10.27;;
49310;SDS011;35177;45.900;5.946;2023-01-23T08:19:37;15.35;;;9.93;;
49310;SDS011;35177;45.900;5.946;2023-01-23T08:22:03;17.35;;;9.90;;
49310;SDS011;35177;45.900;5.946;2023-01-23T08:24:29;17.15;;;10.95;;
49310;SDS011;35177;45.900;5.946;2023-01-23T08:26:54;18.35;;;10.32;;
49310;SDS011;35177;45.900;5.946;2023-01-23T08:29:20;16.42;;;10.70;;
49310;SDS011;35177;45.900;5.946;2023-01-23T08:31:46;16.25;;;10.02;;
49310;SDS011;35177;45.900;5.946;2023-01-23T08:34:12;14.85;;;10.57;;
49310;SDS011;35177;45.900;5.946;2023-01-23T08:36:37;17.20;;;10.85;;
49310;SDS011;35177;45.900;5.946;2023-01-23T08:39:03;14.60;;;9.50;;
49310;SDS011;35177;45.900;5.946;2023-01-23T08:41:28;14.93;;;10.15;;
49310;SDS011;35177;45.900;5.946;2023-01-23T08:43:54;14.48;;;9.48;;
49310;SDS011;35177;45.900;5.946;2023-01-23T08:46:22;15.13;;;9.85;;
49310;SDS011;35177;45.900;5.946;2023-01-23T08:48:47;13.00;;;9.52;;
49310;SDS011;35177;45.900;5.946;2023-01-23T08:51:13;15.32;;;10.43;;
49310;SDS011;35177;45.900;5.946;2023-01-23T08:53:39;17.83;;;9.95;;
49310;SDS011;35177;45.900;5.946;2023-01-23T08:56:06;15.07;;;10.15;;
49310;SDS011;35177;45.900;5.946;2023-01-23T08:58:34;19.92;;;10.65;;
49310;SDS011;35177;45.900;5.946;2023-01-23T09:01:00;16.25;;;10.63;;
49310;SDS011;35177;45.900;5.946;2023-01-23T09:03:26;14.50;;;10.20;;
49310;SDS011;35177;45.900;5.946;2023-01-23T09:05:52;15.57;;;10.70;;
49310;SDS011;35177;45.900;5.946;2023-01-23T09:08:18;16.15;;;10.95;;
49310;SDS011;35177;45.900;5.946;2023-01-23T09:10:43;15.45;;;10.43;;
49310;SDS011;35177;45.900;5.946;2023-01-23T09:13:09;16.95;;;10.02;;
49310;SDS011;35177;45.900;5.946;2023-01-23T09:15:38;19.05;;;10.07;;
49310;SDS011;35177;45.900;5.946;2023-01-23T09:18:04;16.52;;;10.50;;
49310;SDS011;35177;45.900;5.946;2023-01-23T09:20:30;16.65;;;10.20;;
49310;SDS011;35177;45.900;5.946;2023-01-23T09:22:55;15.80;;;10.48;;
49310;SDS011;35177;45.900;5.946;2023-01-23T09:25:21;17.00;;;10.88;;
49310;SDS011;35177;45.900;5.946;2023-01-23T09:27:46;16.08;;;11.25;;
49310;SDS011;35177;45.900;5.946;2023-01-23T09:30:12;16.65;;;10.60;;
49310;SDS011;35177;45.900;5.946;2023-01-23T09:32:38;13.95;;;9.90;;
49310;SDS011;35177;45.900;5.946;2023-01-23T09:35:03;13.88;;;10.10;;
49310;SDS011;35177;45.900;5.946;2023-01-23T09:44:03;16.08;;;10.27;;
49310;SDS011;35177;45.900;5.946;2023-01-23T09:49:58;15.77;;;10.32;;
49310;SDS011;35177;45.900;5.946;2023-01-23T09:54:59;16.85;;;10.05;;
49310;SDS011;35177;45.900;5.946;2023-01-23T09:57:35;15.18;;;10.38;;
49310;SDS011;35177;45.900;5.946;2023-01-23T10:02:56;14.80;;;10.15;;
49310;SDS011;35177;45.900;5.946;2023-01-23T10:05:35;13.40;;;9.60;;
49310;SDS011;35177;45.900;5.946;2023-01-23T10:14:38;13.90;;;9.55;;
49310;SDS011;35177;45.900;5.946;2023-01-23T10:22:47;14.60;;;10.37;;
49310;SDS011;35177;45.900;5.946;2023-01-23T10:25:26;13.27;;;9.38;;
49310;SDS011;35177;45.900;5.946;2023-01-23T10:27:59;14.68;;;10.35;;
49310;SDS011;35177;45.900;5.946;2023-01-23T10:30:38;13.02;;;8.85;;
49310;SDS011;35177;45.900;5.946;2023-01-23T10:33:12;14.40;;;9.32;;
49310;SDS011;35177;45.900;5.946;2023-01-23T10:35:48;14.27;;;9.77;;
49310;SDS011;35177;45.900;5.946;2023-01-23T10:41:02;15.57;;;10.35;;
49310;SDS011;35177;45.900;5.946;2023-01-23T10:43:39;13.75;;;8.98;;
49310;SDS011;35177;45.900;5.946;2023-01-23T10:46:48;15.15;;;10.20;;
49310;SDS011;35177;45.900;5.946;2023-01-23T10:48:58;12.88;;;9.23;;
49310;SDS011;35177;45.900;5.946;2023-01-23T10:51:43;11.45;;;8.82;;
49310;SDS011;35177;45.900;5.946;2023-01-23T10:54:18;12.85;;;8.90;;
49310;SDS011;35177;45.900;5.946;2023-01-23T11:04:44;12.93;;;8.25;;
49310;SDS011;35177;45.900;5.946;2023-01-23T11:09:45;10.90;;;8.10;;
49310;SDS011;35177;45.900;5.946;2023-01-23T11:12:20;13.45;;;9.45;;
49310;SDS011;35177;45.900;5.946;2023-01-23T11:14:47;14.15;;;9.50;;
49310;SDS011;35177;45.900;5.946;2023-01-23T11:17:15;16.77;;;9.10;;
49310;SDS011;35177;45.900;5.946;2023-01-23T11:19:43;12.68;;;8.68;;
49310;SDS011;35177;45.900;5.946;2023-01-23T11:24:51;12.90;;;8.85;;
49310;SDS011;35177;45.900;5.946;2023-01-23T11:27:18;13.43;;;9.57;;
49310;SDS011;35177;45.900;5.946;2023-01-23T11:32:49;14.43;;;9.55;;
49310;SDS011;35177;45.900;5.946;2023-01-23T11:35:21;12.18;;;9.40;;
49310;SDS011;35177;45.900;5.946;2023-01-23T11:38:10;11.57;;;8.85;;
49310;SDS011;35177;45.900;5.946;2023-01-23T11:40:39;12.45;;;8.75;;
49310;SDS011;35177;45.900;5.946;2023-01-23T11:43:09;13.27;;;9.25;;
49310;SDS011;35177;45.900;5.946;2023-01-23T11:59:36;14.10;;;9.68;;
49310;SDS011;35177;45.900;5.946;2023-01-23T12:05:12;14.65;;;9.82;;
49310;SDS011;35177;45.900;5.946;2023-01-23T12:10:27;13.35;;;9.88;;
49310;SDS011;35177;45.900;5.946;2023-01-23T12:16:02;13.40;;;9.63;;
49310;SDS011;35177;45.900;5.946;2023-01-23T12:19:00;14.57;;;10.15;;
49310;SDS011;35177;45.900;5.946;2023-01-23T12:21:42;12.95;;;10.15;;
49310;SDS011;35177;45.900;5.946;2023-01-23T12:42:09;15.00;;;10.95;;
49310;SDS011;35177;45.900;5.946;2023-01-23T12:44:43;16.52;;;10.98;;
49310;SDS011;35177;45.900;5.946;2023-01-23T12:47:26;15.43;;;10.65;;
49310;SDS011;35177;45.900;5.946;2023-01-23T12:49:58;16.17;;;11.00;;
49310;SDS011;35177;45.900;5.946;2023-01-23T12:52:29;17.02;;;10.35;;
49310;SDS011;35177;45.900;5.946;2023-01-23T12:55:12;15.80;;;11.25;;
49310;SDS011;35177;45.900;5.946;2023-01-23T13:00:22;15.43;;;10.50;;
49310;SDS011;35177;45.900;5.946;2023-01-23T13:03:12;17.05;;;10.52;;
49310;SDS011;35177;45.900;5.946;2023-01-23T13:13:44;14.75;;;10.77;;
49310;SDS011;35177;45.900;5.946;2023-01-23T13:16:11;16.13;;;10.77;;
49310;SDS011;35177;45.900;5.946;2023-01-23T13:18:38;16.27;;;11.20;;
49310;SDS011;35177;45.900;5.946;2023-01-23T13:32:57;17.15;;;11.18;;
49310;SDS011;35177;45.900;5.946;2023-01-23T13:52:09;15.18;;;10.63;;
49310;SDS011;35177;45.900;5.946;2023-01-23T13:54:56;17.38;;;11.05;;
49310;SDS011;35177;45.900;5.946;2023-01-23T13:57:52;15.07;;;10.55;;
49310;SDS011;35177;45.900;5.946;2023-01-23T14:00:18;16.20;;;11.52;;
49310;SDS011;35177;45.900;5.946;2023-01-23T14:02:56;17.33;;;10.63;;
49310;SDS011;35177;45.900;5.946;2023-01-23T14:05:48;14.80;;;9.63;;
49310;SDS011;35177;45.900;5.946;2023-01-23T14:08:28;14.68;;;10.20;;
49310;SDS011;35177;45.900;5.946;2023-01-23T14:10:54;16.38;;;10.60;;
49310;SDS011;35177;45.900;5.946;2023-01-23T14:13:19;16.40;;;10.40;;
49310;SDS011;35177;45.900;5.946;2023-01-23T14:15:47;15.20;;;10.52;;
49310;SDS011;35177;45.900;5.946;2023-01-23T14:18:46;15.35;;;10.18;;
49310;SDS011;35177;45.900;5.946;2023-01-23T14:23:52;15.30;;;10.60;;
49310;SDS011;35177;45.900;5.946;2023-01-23T14:26:46;15.70;;;9.57;;
49310;SDS011;35177;45.900;5.946;2023-01-23T14:29:21;15.90;;;10.45;;
49310;SDS011;35177;45.900;5.946;2023-01-23T14:31:49;14.20;;;10.20;;
49310;SDS011;35177;45.900;5.946;2023-01-23T14:34:19;16.08;;;10.68;;
49310;SDS011;35177;45.900;5.946;2023-01-23T14:36:48;15.88;;;10.90;;
49310;SDS011;35177;45.900;5.946;2023-01-23T14:39:20;16.35;;;10.88;;
49310;SDS011;35177;45.900;5.946;2023-01-23T14:41:49;15.80;;;10.52;;
49310;SDS011;35177;45.900;5.946;2023-01-23T14:44:20;15.18;;;10.07;;
49310;SDS011;35177;45.900;5.946;2023-01-23T14:46:50;15.25;;;10.55;;
49310;SDS011;35177;45.900;5.946;2023-01-23T14:49:21;16.52;;;11.10;;
49310;SDS011;35177;45.900;5.946;2023-01-23T14:51:54;15.25;;;10.65;;
49310;SDS011;35177;45.900;5.946;2023-01-23T14:54:21;14.15;;;9.95;;
49310;SDS011;35177;45.900;5.946;2023-01-23T14:56:47;16.15;;;10.73;;
49310;SDS011;35177;45.900;5.946;2023-01-23T14:59:35;15.77;;;10.32;;
49310;SDS011;35177;45.900;5.946;2023-01-23T15:07:56;15.18;;;10.25;;
49310;SDS011;35177;45.900;5.946;2023-01-23T15:10:28;15.48;;;10.85;;
49310;SDS011;35177;45.900;5.946;2023-01-23T15:13:05;15.80;;;10.63;;
49310;SDS011;35177;45.900;5.946;2023-01-23T15:15:35;15.93;;;10.73;;
49310;SDS011;35177;45.900;5.946;2023-01-23T15:18:02;17.33;;;11.05;;
49310;SDS011;35177;45.900;5.946;2023-01-23T15:20:36;16.65;;;10.75;;
49310;SDS011;35177;45.900;5.946;2023-01-23T15:23:38;16.35;;;11.60;;
49310;SDS011;35177;45.900;5.946;2023-01-23T15:28:38;14.38;;;10.32;;
49310;SDS011;35177;45.900;5.946;2023-01-23T15:31:18;14.90;;;10.52;;
49310;SDS011;35177;45.900;5.946;2023-01-23T15:33:48;15.98;;;10.82;;
49310;SDS011;35177;45.900;5.946;2023-01-23T15:36:32;15.05;;;10.35;;
49310;SDS011;35177;45.900;5.946;2023-01-23T15:38:57;14.35;;;10.05;;
49310;SDS011;35177;45.900;5.946;2023-01-23T15:41:37;16.23;;;10.25;;
49310;SDS011;35177;45.900;5.946;2023-01-23T15:44:13;15.43;;;10.73;;
49310;SDS011;35177;45.900;5.946;2023-01-23T15:46:40;16.02;;;10.35;;
49310;SDS011;35177;45.900;5.946;2023-01-23T15:49:06;14.63;;;10.52;;
49310;SDS011;35177;45.900;5.946;2023-01-23T15:51:32;16.02;;;10.48;;
49310;SDS011;35177;45.900;5.946;2023-01-23T15:53:58;15.13;;;9.85;;
49310;SDS011;35177;45.900;5.946;2023-01-23T15:56:25;24.02;;;14.45;;
49310;SDS011;35177;45.900;5.946;2023-01-23T15:58:53;15.13;;;10.05;;
49310;SDS011;35177;45.900;5.946;2023-01-23T16:01:19;16.02;;;11.18;;
49310;SDS011;35177;45.900;5.946;2023-01-23T16:03:45;15.07;;;9.80;;
49310;SDS011;35177;45.900;5.946;2023-01-23T16:06:14;16.48;;;11.23;;
49310;SDS011;35177;45.900;5.946;2023-01-23T16:08:42;17.17;;;11.25;;
49310;SDS011;35177;45.900;5.946;2023-01-23T16:11:09;26.73;;;16.60;;
49310;SDS011;35177;45.900;5.946;2023-01-23T16:13:34;18.50;;;12.43;;
49310;SDS011;35177;45.900;5.946;2023-01-23T16:15:59;17.00;;;11.32;;
49310;SDS011;35177;45.900;5.946;2023-01-23T16:18:25;15.93;;;10.75;;
49310;SDS011;35177;45.900;5.946;2023-01-23T16:20:50;19.95;;;12.90;;
49310;SDS011;35177;45.900;5.946;2023-01-23T16:23:22;17.65;;;11.18;;
49310;SDS011;35177;45.900;5.946;2023-01-23T16:25:51;16.80;;;11.48;;
49310;SDS011;35177;45.900;5.946;2023-01-23T16:28:18;17.55;;;12.05;;
49310;SDS011;35177;45.900;5.946;2023-01-23T16:30:46;16.70;;;11.30;;
49310;SDS011;35177;45.900;5.946;2023-01-23T16:33:13;17.10;;;11.52;;
49310;SDS011;35177;45.900;5.946;2023-01-23T16:35:39;16.38;;;10.80;;
49310;SDS011;35177;45.900;5.946;2023-01-23T16:38:05;17.20;;;11.27;;
49310;SDS011;35177;45.900;5.946;2023-01-23T16:40:31;15.75;;;10.68;;
49310;SDS011;35177;45.900;5.946;2023-01-23T16:42:57;18.02;;;12.02;;
49310;SDS011;35177;45.900;5.946;2023-01-23T16:45:27;18.67;;;12.05;;
49310;SDS011;35177;45.900;5.946;2023-01-23T16:47:54;21.20;;;12.20;;
49310;SDS011;35177;45.900;5.946;2023-01-23T16:50:21;16.60;;;11.02;;
49310;SDS011;35177;45.900;5.946;2023-01-23T16:55:24;20.45;;;12.52;;
49310;SDS011;35177;45.900;5.946;2023-01-23T16:57:55;27.85;;;15.88;;
49310;SDS011;35177;45.900;5.946;2023-01-23T17:00:22;22.92;;;14.43;;
49310;SDS011;35177;45.900;5.946;2023-01-23T17:02:49;23.88;;;14.30;;